Time;durP1;ratioP1;P1;durP2;ratioP2;P2;SDS_P1;SDS_P2;PMS_P1;PMS_P2;Temp;Humidity;BMP_temperature;BMP_pressure;BME280_temperature;BME280_humidity;BME280_pressure;Samples;Min_cycle;Max_cycle;Signal;HPM_P1;HPM_P2
2022/03/02 05:29:19;;;;;;;3.88;3.58;;;-4.30;99.90;;;;;;5703057;23;20230;-71
2022/03/02 05:31:46;;;;;;;3.58;3.38;;;-4.30;99.90;;;;;;4995626;28;20752;-72
2022/03/02 05:34:13;;;;;;;3.90;3.53;;;-4.30;99.90;;;;;;4995771;28;20681;-71
2022/03/02 05:36:40;;;;;;;3.20;3.00;;;-4.30;99.90;;;;;;4995843;28;20387;-71
2022/03/02 05:39:07;;;;;;;3.30;3.03;;;-4.40;99.90;;;;;;4995675;28;20313;-70
2022/03/02 05:41:34;;;;;;;3.30;3.03;;;-4.40;99.90;;;;;;4995740;28;20228;-70
2022/03/02 05:44:02;;;;;;;3.10;2.80;;;-4.40;99.90;;;;;;4995735;28;20670;-69
2022/03/02 05:46:30;;;;;;;2.97;2.75;;;-4.40;99.90;;;;;;4997128;28;20289;-71
2022/03/02 05:48:57;;;;;;;3.30;3.10;;;-4.40;99.90;;;;;;4995694;28;20309;-69
2022/03/02 05:51:24;;;;;;;3.65;3.35;;;-4.40;99.90;;;;;;4996499;28;20301;-67
2022/03/02 05:53:50;;;;;;;3.05;2.88;;;-4.40;99.90;;;;;;4995980;28;20202;-70
2022/03/02 05:56:17;;;;;;;2.67;2.58;;;-4.30;99.90;;;;;;4996755;28;20209;-70
2022/03/02 05:58:44;;;;;;;3.40;3.10;;;-4.30;99.90;;;;;;4996073;28;20573;-71
2022/03/02 06:01:11;;;;;;;3.17;2.97;;;-4.20;99.90;;;;;;4995825;28;20226;-70
2022/03/02 06:03:39;;;;;;;2.80;2.70;;;-4.20;99.90;;;;;;4995103;28;20242;-70
2022/03/02 06:06:06;;;;;;;3.50;3.20;;;-4.20;99.90;;;;;;4995977;28;20245;-70
2022/03/02 06:08:33;;;;;;;3.22;3.03;;;-4.10;99.90;;;;;;4994905;28;20229;-68
2022/03/02 06:11:01;;;;;;;3.05;2.92;;;-4.10;99.90;;;;;;4995060;28;20242;-68
2022/03/02 06:13:28;;;;;;;3.22;3.03;;;-4.10;99.90;;;;;;4995048;28;20661;-68
2022/03/02 06:15:55;;;;;;;3.28;2.97;;;-4.10;99.90;;;;;;4994750;28;20261;-68
2022/03/02 06:18:23;;;;;;;3.35;3.15;;;-4.00;99.90;;;;;;4995019;28;20222;-68
2022/03/02 06:20:52;;;;;;;3.13;2.92;;;-4.00;99.90;;;;;;4994681;28;20199;-68
2022/03/02 06:23:20;;;;;;;3.25;3.05;;;-3.90;99.90;;;;;;4995098;28;20198;-68
2022/03/02 06:25:47;;;;;;;2.60;2.45;;;-3.80;99.90;;;;;;4994983;28;20245;-68
2022/03/02 06:28:15;;;;;;;3.13;2.90;;;-3.60;99.90;;;;;;4994911;28;20205;-68
2022/03/02 06:30:41;;;;;;;3.72;3.40;;;-3.50;99.90;;;;;;4994613;28;20241;-68
2022/03/02 06:33:10;;;;;;;3.35;3.05;;;-3.30;99.90;;;;;;4994842;28;20253;-68
2022/03/02 11:31:01;;;;;;;10.52;7.50;;;8.80;30.60;;;;;;5304903;23;20229;-68
2022/03/02 11:33:30;;;;;;;13.02;8.30;;;8.90;31.20;;;;;;4996447;28;20213;-68
2022/03/02 11:36:02;;;;;;;13.90;7.75;;;9.00;30.30;;;;;;4993786;28;20202;-68
2022/03/02 11:38:32;;;;;;;14.10;8.52;;;9.10;30.00;;;;;;4993569;28;20217;-68
2022/03/02 11:40:59;;;;;;;12.57;8.00;;;9.00;29.50;;;;;;4993763;28;20292;-70
2022/03/02 11:43:29;;;;;;;10.30;7.20;;;9.10;29.80;;;;;;4993760;28;20637;-69
2022/03/02 11:46:01;;;;;;;8.30;6.07;;;9.10;29.60;;;;;;4993953;28;20209;-68
2022/03/02 11:48:30;;;;;;;8.15;6.22;;;9.30;29.70;;;;;;4994109;28;20179;-68
2022/03/02 11:51:14;;;;;;;6.20;5.22;;;9.40;29.40;;;;;;4993860;28;20219;-68
2022/03/02 11:53:44;;;;;;;7.95;5.40;;;9.40;29.00;;;;;;4993921;28;20187;-68
2022/03/02 11:56:13;;;;;;;4.78;4.30;;;9.50;29.00;;;;;;4993801;28;20286;-68
2022/03/02 11:59:01;;;;;;;6.93;5.07;;;9.60;28.90;;;;;;4993749;28;20222;-68
2022/03/02 12:01:40;;;;;;;4.90;4.07;;;9.70;29.00;;;;;;4997533;28;20233;-68
2022/03/02 12:04:08;;;;;;;4.63;3.80;;;9.80;29.10;;;;;;5002818;28;20613;-68
2022/03/02 12:06:47;;;;;;;5.18;4.10;;;9.90;28.60;;;;;;5001888;28;20203;-69
2022/03/02 12:09:26;;;;;;;4.50;4.10;;;9.90;28.50;;;;;;5001370;28;20186;-69
2022/03/02 12:12:06;;;;;;;3.60;3.28;;;9.90;28.30;;;;;;5001861;28;20592;-69
2022/03/02 12:14:41;;;;;;;3.47;3.17;;;10.00;27.50;;;;;;5002807;28;20198;-69
2022/03/02 12:17:16;;;;;;;4.32;3.92;;;10.00;27.40;;;;;;4998213;28;20186;-69
2022/03/02 12:19:45;;;;;;;4.20;3.75;;;9.90;28.10;;;;;;4997399;28;20230;-69
2022/03/02 12:22:13;;;;;;;4.88;4.38;;;9.90;28.50;;;;;;4997078;28;20209;-69
2022/03/02 12:24:40;;;;;;;6.40;4.93;;;9.90;28.60;;;;;;4997422;28;20209;-68
2022/03/02 12:27:09;;;;;;;6.82;5.53;;;9.90;28.20;;;;;;4997411;28;20198;-68
2022/03/02 12:29:38;;;;;;;6.07;5.40;;;9.90;28.10;;;;;;4997245;28;20269;-68
2022/03/02 12:32:07;;;;;;;6.70;5.00;;;9.90;28.00;;;;;;4997030;28;20215;-68
2022/03/02 12:34:39;;;;;;;5.50;4.68;;;9.90;27.70;;;;;;4997247;28;20198;-68
2022/03/02 12:37:07;;;;;;;7.68;5.78;;;9.90;28.00;;;;;;4997242;28;20205;-68
2022/03/02 12:39:34;;;;;;;7.68;5.95;;;9.90;27.90;;;;;;4996963;28;20231;-68
2022/03/02 12:42:04;;;;;;;6.78;5.25;;;9.90;28.10;;;;;;4997122;28;20209;-68
2022/03/02 12:44:35;;;;;;;8.48;7.07;;;10.00;27.90;;;;;;4996980;28;20213;-68
2022/03/02 12:47:04;;;;;;;11.02;6.53;;;10.00;27.30;;;;;;4996672;28;20187;-69
2022/03/02 12:49:32;;;;;;;8.70;6.30;;;10.00;27.30;;;;;;4996836;28;20305;-69
2022/03/02 12:52:01;;;;;;;9.00;7.18;;;10.00;27.60;;;;;;4999917;28;20293;-69
2022/03/02 12:54:30;;;;;;;7.40;6.10;;;10.00;27.10;;;;;;5000373;28;20202;-68
2022/03/02 12:56:59;;;;;;;8.55;6.28;;;9.90;27.70;;;;;;5000599;28;20202;-68
2022/03/02 12:59:27;;;;;;;6.00;5.30;;;10.00;27.90;;;;;;5000732;28;20227;-68
2022/03/02 13:01:55;;;;;;;5.47;4.90;;;10.00;27.30;;;;;;5001342;28;20203;-68
2022/03/02 13:04:29;;;;;;;5.20;4.50;;;10.10;27.10;;;;;;5000403;28;20525;-69
2022/03/02 13:07:06;;;;;;;4.57;4.18;;;10.10;26.60;;;;;;5001512;28;20203;-68
2022/03/02 13:09:39;;;;;;;5.75;4.70;;;10.10;25.70;;;;;;5001390;28;20222;-68
2022/03/02 13:12:31;;;;;;;5.47;4.93;;;10.20;24.80;;;;;;5000567;28;20187;-68
2022/03/02 13:15:00;;;;;;;6.15;5.10;;;10.10;23.10;;;;;;5000779;28;20206;-68
2022/03/02 13:17:28;;;;;;;5.38;4.45;;;10.10;21.50;;;;;;5001603;28;20650;-68
2022/03/02 13:19:56;;;;;;;4.40;4.00;;;10.00;20.30;;;;;;5000608;28;20677;-68
2022/03/02 13:22:28;;;;;;;5.25;3.88;;;9.90;19.80;;;;;;4996624;28;20227;-68
2022/03/02 13:24:56;;;;;;;3.67;3.38;;;9.90;19.30;;;;;;4995925;28;20534;-68
2022/03/02 13:27:24;;;;;;;3.85;3.50;;;9.90;19.00;;;;;;4996222;28;20289;-68
2022/03/02 13:29:55;;;;;;;4.05;3.65;;;9.90;18.80;;;;;;4996093;28;20229;-68
2022/03/02 13:32:22;;;;;;;3.95;3.60;;;9.90;18.10;;;;;;4996000;28;20245;-68
2022/03/02 13:35:07;;;;;;;4.32;3.67;;;10.00;17.00;;;;;;4996068;28;20209;-68
2022/03/02 13:37:59;;;;;;;5.03;3.30;;;9.90;16.60;;;;;;4995689;28;20732;-68
2022/03/02 13:40:44;;;;;;;3.60;3.30;;;9.80;16.00;;;;;;4995822;28;20235;-68
2022/03/02 13:43:34;;;;;;;2.88;2.67;;;9.80;16.00;;;;;;4995970;28;20282;-68
2022/03/02 13:46:22;;;;;;;3.42;3.13;;;9.80;15.80;;;;;;4996033;28;20361;-68
2022/03/02 13:48:59;;;;;;;3.78;3.45;;;9.80;15.30;;;;;;4995886;28;20225;-68
2022/03/02 13:51:27;;;;;;;4.15;3.47;;;9.80;16.50;;;;;;4995454;28;20662;-69
2022/03/02 13:54:04;;;;;;;3.20;3.00;;;9.80;16.50;;;;;;4995727;28;20214;-68
2022/03/02 13:56:40;;;;;;;4.45;4.05;;;9.80;16.60;;;;;;4995511;28;20660;-68
2022/03/02 13:59:24;;;;;;;3.72;3.38;;;9.80;17.10;;;;;;4995337;28;20218;-68
2022/03/02 14:01:52;;;;;;;6.57;4.85;;;9.80;17.90;;;;;;4995521;28;20213;-67
2022/03/02 14:04:20;;;;;;;4.32;3.53;;;9.70;17.50;;;;;;4995555;28;20199;-67
2022/03/02 14:06:54;;;;;;;4.28;3.45;;;9.70;17.30;;;;;;4995068;28;20202;-67
2022/03/02 14:09:22;;;;;;;3.40;3.13;;;9.70;17.70;;;;;;4995027;28;20650;-67
2022/03/02 14:11:50;;;;;;;3.20;2.90;;;9.70;17.90;;;;;;4995523;28;20203;-67
2022/03/02 14:14:20;;;;;;;3.28;2.97;;;9.70;17.90;;;;;;4995459;28;20214;-67
2022/03/02 14:16:56;;;;;;;3.65;3.30;;;9.70;18.40;;;;;;4995093;28;20203;-67
2022/03/02 14:19:24;;;;;;;3.22;2.97;;;9.70;18.20;;;;;;4995091;28;20309;-67
2022/03/02 14:21:57;;;;;;;3.03;2.83;;;9.60;18.20;;;;;;4995243;28;20252;-67
2022/03/02 14:24:28;;;;;;;4.07;3.78;;;9.60;18.40;;;;;;4994898;28;20213;-67
2022/03/02 14:27:02;;;;;;;5.28;3.88;;;9.50;18.30;;;;;;4994855;28;20635;-67
2022/03/02 14:29:30;;;;;;;3.50;3.20;;;9.30;17.90;;;;;;4995005;28;20313;-67
2022/03/02 14:31:59;;;;;;;3.60;3.30;;;9.30;18.70;;;;;;4994822;28;20218;-66
2022/03/02 14:34:44;;;;;;;4.90;3.53;;;9.30;19.20;;;;;;4994973;28;20207;-67
2022/03/02 14:37:13;;;;;;;8.93;5.75;;;9.20;19.60;;;;;;4995071;28;20195;-68
2022/03/02 14:40:12;;;;;;;5.75;4.82;;;9.20;20.30;;;;;;4994448;28;20232;-67
2022/03/02 14:42:42;;;;;;;7.63;5.57;;;9.10;20.80;;;;;;4934489;29;20323;-68
2022/03/02 14:45:18;;;;;;;5.47;4.60;;;9.10;21.00;;;;;;4982775;28;20555;-68
2022/03/02 14:47:47;;;;;;;6.05;4.55;;;9.00;21.40;;;;;;4994850;28;20269;-68
2022/03/02 14:50:31;;;;;;;8.10;5.80;;;9.00;21.60;;;;;;4994663;28;20242;-68
2022/03/02 14:53:00;;;;;;;7.32;5.05;;;8.90;21.50;;;;;;4994233;28;20645;-67
2022/03/02 14:55:35;;;;;;;4.78;4.32;;;8.90;21.90;;;;;;4995683;28;20570;-68
2022/03/02 14:58:05;;;;;;;6.25;4.43;;;9.00;22.10;;;;;;4999069;28;20198;-67
2022/03/02 15:00:36;;;;;;;10.38;7.40;;;9.00;22.80;;;;;;4999669;28;20285;-67
2022/03/02 15:03:17;;;;;;;9.82;7.13;;;8.90;25.50;;;;;;5000350;28;20225;-68
2022/03/02 15:05:55;;;;;;;12.05;7.50;;;8.80;27.20;;;;;;4999170;28;20261;-68
2022/03/02 15:08:39;;;;;;;11.77;7.80;;;8.70;27.60;;;;;;4999072;28;20186;-68
2022/03/02 15:11:22;;;;;;;12.25;7.82;;;8.60;28.20;;;;;;5000093;28;20283;-68
2022/03/02 15:16:47;;;;;;;13.65;9.85;;;8.30;29.60;;;;;;4999218;28;20249;-68
2022/03/02 15:19:17;;;;;;;14.30;8.90;;;8.20;29.50;;;;;;4998812;28;20696;-68
2022/03/02 15:21:46;;;;;;;12.38;8.63;;;8.00;29.90;;;;;;4998882;28;20234;-68
2022/03/02 15:24:14;;;;;;;11.55;8.05;;;7.90;30.10;;;;;;4995007;28;20720;-68
2022/03/02 15:26:48;;;;;;;19.15;10.43;;;7.80;30.80;;;;;;4994180;28;20203;-68
2022/03/02 15:29:19;;;;;;;13.40;9.93;;;7.70;31.40;;;;;;4993815;28;20281;-69
2022/03/02 15:31:52;;;;;;;11.60;8.85;;;7.60;31.90;;;;;;4993734;28;20217;-67
2022/03/02 15:34:20;;;;;;;15.73;10.25;;;7.60;32.30;;;;;;4993791;28;20193;-68
2022/03/02 15:36:56;;;;;;;12.48;8.63;;;7.50;32.80;;;;;;4993819;28;20187;-68
2022/03/02 15:39:28;;;;;;;11.25;8.27;;;7.50;33.20;;;;;;4993912;28;20202;-69
2022/03/02 15:42:01;;;;;;;11.05;8.57;;;7.40;33.40;;;;;;4993760;28;20234;-68
2022/03/02 15:44:28;;;;;;;13.30;9.57;;;7.30;33.70;;;;;;4993991;28;20273;-67
2022/03/02 15:46:55;;;;;;;13.50;9.23;;;7.30;34.30;;;;;;4993686;28;20209;-68
2022/03/02 15:49:22;;;;;;;10.65;7.88;;;7.20;34.70;;;;;;4993832;28;20198;-68
2022/03/02 15:52:03;;;;;;;11.73;8.55;;;7.20;34.90;;;;;;4993879;28;20209;-68
2022/03/02 15:54:30;;;;;;;10.85;8.45;;;7.20;35.10;;;;;;4993827;28;20209;-68
2022/03/02 15:57:01;;;;;;;9.82;7.55;;;7.20;35.60;;;;;;4993817;28;20269;-68
2022/03/02 15:59:32;;;;;;;13.60;9.25;;;7.20;36.00;;;;;;4994256;28;20198;-68
2022/03/02 16:01:59;;;;;;;12.60;9.52;;;7.10;36.20;;;;;;4993490;28;20636;-69
2022/03/02 16:04:26;;;;;;;11.00;8.38;;;7.10;36.40;;;;;;4993760;28;20246;-68
2022/03/02 16:06:56;;;;;;;10.80;8.00;;;7.00;36.70;;;;;;4993697;28;20285;-68
2022/03/02 16:09:24;;;;;;;14.45;9.32;;;7.00;37.00;;;;;;4993654;28;20209;-68
2022/03/02 16:11:52;;;;;;;12.23;8.95;;;6.90;37.50;;;;;;4993416;28;20218;-68
2022/03/02 16:14:19;;;;;;;11.82;8.10;;;6.90;38.60;;;;;;4993413;28;20203;-68
2022/03/02 16:16:49;;;;;;;10.80;8.25;;;6.90;39.10;;;;;;4993325;28;20202;-67
2022/03/02 16:19:22;;;;;;;12.18;7.72;;;6.90;39.20;;;;;;4993681;28;20208;-71
2022/03/02 16:21:50;;;;;;;17.02;9.60;;;6.80;39.40;;;;;;4993265;28;20283;-70
2022/03/02 16:24:27;;;;;;;13.10;9.77;;;6.80;40.20;;;;;;4993546;28;20643;-70
2022/03/02 16:27:11;;;;;;;12.95;9.02;;;6.70;41.40;;;;;;4993618;28;20218;-70
2022/03/02 16:29:38;;;;;;;11.05;7.82;;;6.60;42.50;;;;;;4993488;28;20322;-68
2022/03/02 16:32:07;;;;;;;10.65;7.05;;;6.60;43.30;;;;;;4993282;28;20211;-68
2022/03/02 16:34:35;;;;;;;7.90;6.22;;;6.60;43.80;;;;;;4993397;28;20257;-69
2022/03/02 16:37:04;;;;;;;10.40;6.28;;;6.60;44.00;;;;;;4993474;28;20206;-69
2022/03/02 16:39:31;;;;;;;8.93;6.22;;;6.60;45.10;;;;;;4993409;28;20245;-69
2022/03/02 16:41:58;;;;;;;6.93;5.50;;;6.50;46.20;;;;;;4993390;28;20293;-68
2022/03/02 16:44:26;;;;;;;6.50;5.57;;;6.50;47.70;;;;;;4993392;28;20297;-68
2022/03/02 16:46:58;;;;;;;7.32;4.78;;;6.40;48.20;;;;;;4995154;28;20202;-68
2022/03/02 16:49:26;;;;;;;6.72;5.15;;;6.40;49.00;;;;;;4997083;28;20183;-68
2022/03/02 16:51:53;;;;;;;5.55;4.60;;;6.40;50.70;;;;;;4996587;28;20741;-69
2022/03/02 16:54:20;;;;;;;5.80;4.85;;;6.30;51.60;;;;;;4996543;28;20293;-69
2022/03/02 16:56:47;;;;;;;6.50;4.30;;;6.20;52.90;;;;;;4996846;28;20213;-69
2022/03/02 16:59:14;;;;;;;3.90;3.58;;;6.20;53.80;;;;;;4996566;28;20630;-69
2022/03/02 17:01:41;;;;;;;4.55;4.13;;;6.10;54.90;;;;;;4996537;28;20261;-68
2022/03/02 17:04:10;;;;;;;4.65;4.25;;;6.00;55.70;;;;;;4996879;28;20238;-68
2022/03/02 17:06:47;;;;;;;5.03;4.07;;;6.00;55.60;;;;;;4996221;28;20744;-68
2022/03/02 17:09:14;;;;;;;4.03;3.17;;;6.00;55.60;;;;;;4996536;28;20183;-68
2022/03/02 17:11:41;;;;;;;3.47;3.28;;;5.90;57.00;;;;;;4996706;28;20199;-68
2022/03/02 17:14:08;;;;;;;3.17;2.97;;;5.90;58.20;;;;;;4996775;28;20186;-68
2022/03/02 17:16:36;;;;;;;3.50;3.20;;;5.80;58.70;;;;;;4996139;28;20294;-68
2022/03/02 17:19:03;;;;;;;2.83;2.63;;;5.70;58.50;;;;;;4996378;28;20206;-68
2022/03/02 17:21:30;;;;;;;3.50;3.20;;;5.70;59.30;;;;;;4996380;28;20231;-68
2022/03/02 17:23:58;;;;;;;2.60;2.40;;;5.60;60.20;;;;;;4995988;28;20203;-68
2022/03/02 17:26:25;;;;;;;3.45;3.05;;;5.60;60.70;;;;;;4996296;28;20239;-68
2022/03/02 17:28:52;;;;;;;3.40;2.60;;;5.60;61.80;;;;;;4995832;28;20665;-68
2022/03/02 17:31:19;;;;;;;2.60;2.45;;;5.50;63.20;;;;;;4995679;28;20261;-68
2022/03/02 17:33:46;;;;;;;2.95;2.75;;;5.50;65.50;;;;;;4995621;28;20215;-68
2022/03/02 17:36:13;;;;;;;2.60;2.40;;;5.40;66.50;;;;;;4996108;28;20205;-68
2022/03/02 17:38:40;;;;;;;3.75;3.42;;;5.40;67.30;;;;;;4996016;28;20209;-68
2022/03/02 17:41:08;;;;;;;2.97;2.70;;;5.30;69.10;;;;;;4995467;28;20704;-68
2022/03/02 17:43:35;;;;;;;2.35;2.25;;;5.30;71.00;;;;;;4995919;28;20228;-68
2022/03/02 17:46:03;;;;;;;3.33;3.03;;;5.20;72.00;;;;;;4995947;28;20206;-70
2022/03/02 17:48:30;;;;;;;3.33;3.08;;;5.20;73.70;;;;;;4995945;28;20218;-70
2022/03/02 17:50:56;;;;;;;2.72;2.50;;;5.10;74.00;;;;;;4995793;28;20245;-70
2022/03/02 17:53:23;;;;;;;2.80;2.60;;;5.10;73.80;;;;;;4995842;28;20202;-70
2022/03/02 17:55:50;;;;;;;2.95;2.75;;;5.10;74.80;;;;;;4995834;28;20230;-70
2022/03/02 17:58:19;;;;;;;2.83;2.63;;;5.00;74.20;;;;;;4995263;28;20301;-70
2022/03/02 18:00:46;;;;;;;2.97;2.75;;;5.00;75.10;;;;;;4995075;28;20317;-70
2022/03/02 18:03:14;;;;;;;3.65;3.35;;;4.90;77.20;;;;;;4995131;28;20736;-70
2022/03/02 18:05:42;;;;;;;3.13;2.92;;;4.90;80.30;;;;;;4994935;28;20199;-70
2022/03/02 18:08:09;;;;;;;3.10;2.90;;;4.80;82.40;;;;;;4995259;28;20245;-70
2022/03/02 18:10:36;;;;;;;2.75;2.55;;;4.80;83.20;;;;;;4995192;28;20302;-70
2022/03/02 18:13:03;;;;;;;3.50;3.20;;;4.70;82.40;;;;;;4994861;28;20218;-71
2022/03/02 18:15:31;;;;;;;3.17;2.85;;;4.70;83.10;;;;;;4995224;28;20281;-70
2022/03/02 18:18:00;;;;;;;3.00;2.80;;;4.70;83.60;;;;;;4995502;28;20297;-70
2022/03/02 18:20:27;;;;;;;3.40;3.10;;;4.70;84.50;;;;;;4994847;28;20594;-70
2022/03/02 18:22:54;;;;;;;2.92;2.72;;;4.70;84.80;;;;;;4994781;28;20202;-70
2022/03/02 18:25:21;;;;;;;3.17;2.97;;;4.60;85.30;;;;;;4994932;28;20230;-70
2022/03/02 18:27:49;;;;;;;2.63;2.42;;;4.60;85.80;;;;;;4994721;28;20547;-70
2022/03/02 18:30:16;;;;;;;2.97;2.67;;;4.60;86.80;;;;;;4994548;28;20223;-70
2022/03/02 18:32:45;;;;;;;3.10;2.80;;;4.60;88.20;;;;;;4994678;28;20217;-70
2022/03/02 18:35:12;;;;;;;2.50;2.40;;;4.50;89.70;;;;;;4994924;28;20306;-70
2022/03/02 18:37:42;;;;;;;2.72;2.53;;;4.50;90.20;;;;;;4995188;28;20199;-71
2022/03/02 18:40:11;;;;;;;2.20;2.10;;;4.50;88.90;;;;;;4994367;28;20623;-71
2022/03/02 18:42:38;;;;;;;2.78;2.42;;;4.40;89.90;;;;;;4993800;28;20285;-68
2022/03/02 18:45:07;;;;;;;2.63;2.45;;;4.50;90.20;;;;;;4994565;28;20658;-69
2022/03/02 18:47:34;;;;;;;2.80;2.60;;;4.40;90.40;;;;;;4994115;28;20254;-69
2022/03/02 18:50:03;;;;;;;2.38;2.28;;;4.40;90.30;;;;;;4994318;28;20710;-70
2022/03/02 18:52:30;;;;;;;2.30;2.20;;;4.40;91.30;;;;;;4994638;28;20234;-69
2022/03/02 18:54:57;;;;;;;3.22;3.00;;;4.40;92.20;;;;;;4994335;28;20289;-70
2022/03/02 18:57:24;;;;;;;2.90;2.70;;;4.40;93.70;;;;;;4994987;28;20318;-71
2022/03/02 18:59:51;;;;;;;2.35;2.25;;;4.40;95.40;;;;;;4994399;28;20225;-71
2022/03/02 19:02:19;;;;;;;2.45;2.25;;;4.30;96.60;;;;;;4994297;28;20229;-69
2022/03/02 19:04:46;;;;;;;2.50;2.30;;;4.30;96.10;;;;;;4994104;28;20209;-71
2022/03/02 19:07:14;;;;;;;3.03;2.78;;;4.30;95.60;;;;;;4994196;28;20745;-71
2022/03/02 19:09:41;;;;;;;3.13;2.90;;;4.30;96.30;;;;;;4993372;28;20318;-71
2022/03/02 19:12:08;;;;;;;2.40;2.30;;;4.20;96.30;;;;;;4994202;28;20261;-71
2022/03/02 19:14:35;;;;;;;2.40;2.30;;;4.30;95.60;;;;;;4994261;28;20656;-71
2022/03/02 19:17:02;;;;;;;2.67;2.50;;;4.20;95.70;;;;;;4994372;28;20273;-71
2022/03/02 19:19:29;;;;;;;3.05;2.78;;;4.20;96.50;;;;;;4994323;28;20187;-71
2022/03/02 19:22:00;;;;;;;2.95;2.20;;;4.20;97.50;;;;;;4994361;28;20581;-71
2022/03/02 19:24:31;;;;;;;2.70;2.53;;;4.20;99.00;;;;;;4993942;28;20306;-71
2022/03/02 19:26:58;;;;;;;2.40;2.30;;;4.20;99.90;;;;;;4993697;28;20191;-71
2022/03/02 19:29:29;;;;;;;2.70;2.50;;;4.20;99.90;;;;;;4994014;28;20281;-71
2022/03/02 19:31:56;;;;;;;2.40;2.22;;;4.10;99.90;;;;;;4993731;28;20206;-71
2022/03/02 19:34:23;;;;;;;2.47;2.28;;;4.10;99.90;;;;;;4993949;28;20241;-70
2022/03/02 19:36:51;;;;;;;2.83;2.63;;;4.10;99.90;;;;;;4993572;28;20565;-70
2022/03/02 19:42:04;;;;;;;3.17;2.97;;;4.00;99.90;;;;;;4993789;28;20258;-71
2022/03/02 19:44:31;;;;;;;6.70;5.38;;;4.00;99.90;;;;;;4993864;28;20249;-72
2022/03/02 19:46:59;;;;;;;6.63;5.72;;;4.00;99.90;;;;;;4994264;28;20301;-73
2022/03/02 19:49:29;;;;;;;7.85;5.57;;;3.90;99.90;;;;;;4993839;28;20206;-72
2022/03/02 19:51:57;;;;;;;7.47;5.32;;;3.90;99.90;;;;;;4994138;28;20230;-73
2022/03/02 19:54:24;;;;;;;7.53;5.63;;;3.90;99.90;;;;;;4994118;28;20234;-72
2022/03/02 19:56:53;;;;;;;6.82;4.97;;;3.80;99.90;;;;;;4993927;28;20204;-73
2022/03/02 19:59:22;;;;;;;5.50;4.93;;;3.80;99.90;;;;;;4993286;28;20689;-72
2022/03/02 20:01:49;;;;;;;6.00;5.20;;;3.80;99.90;;;;;;4993318;28;20709;-73
2022/03/02 20:04:16;;;;;;;5.10;4.60;;;3.70;99.90;;;;;;4993691;28;20206;-73
2022/03/02 20:06:43;;;;;;;5.53;4.78;;;3.70;99.90;;;;;;4993585;28;20207;-73
2022/03/02 20:09:10;;;;;;;5.07;4.50;;;3.70;99.90;;;;;;4994017;28;20249;-72
2022/03/02 20:11:37;;;;;;;5.25;4.28;;;3.60;99.90;;;;;;4993270;28;20214;-72
2022/03/02 20:14:06;;;;;;;4.88;4.28;;;3.50;99.90;;;;;;4993180;28;20241;-73
2022/03/02 20:16:34;;;;;;;4.63;4.22;;;3.40;99.90;;;;;;4993415;28;20211;-73
2022/03/02 20:19:01;;;;;;;4.38;3.97;;;3.40;99.90;;;;;;4993408;28;20215;-73
2022/03/02 20:21:28;;;;;;;4.50;4.07;;;3.20;99.90;;;;;;4995596;28;20270;-72
2022/03/02 20:23:55;;;;;;;4.50;4.10;;;3.10;99.90;;;;;;4997269;28;20229;-72
2022/03/02 20:26:23;;;;;;;5.72;4.80;;;3.00;99.90;;;;;;4997420;28;20310;-74
2022/03/02 20:28:49;;;;;;;5.43;3.95;;;3.00;99.90;;;;;;4996939;28;20214;-73
2022/03/02 20:31:16;;;;;;;4.30;3.92;;;2.90;99.90;;;;;;4996850;28;20218;-74
2022/03/02 20:33:44;;;;;;;4.00;3.70;;;2.80;99.90;;;;;;4997369;28;20261;-73
2022/03/02 20:36:11;;;;;;;5.97;4.47;;;2.70;99.90;;;;;;4997379;28;20762;-74
2022/03/02 20:38:38;;;;;;;4.10;3.67;;;2.70;99.90;;;;;;4997802;28;20651;-74
2022/03/02 20:41:05;;;;;;;4.35;3.85;;;2.60;99.90;;;;;;4998535;28;20322;-74
2022/03/02 20:43:32;;;;;;;4.07;3.78;;;2.50;99.90;;;;;;5000587;28;20202;-73
2022/03/02 20:45:59;;;;;;;4.32;3.90;;;2.40;99.90;;;;;;5000066;28;20274;-73
2022/03/02 20:48:26;;;;;;;4.32;3.92;;;2.40;99.90;;;;;;4997670;28;20199;-73
2022/03/02 20:50:55;;;;;;;4.40;4.10;;;2.30;99.90;;;;;;4997519;28;20665;-71
2022/03/02 20:53:23;;;;;;;4.00;3.60;;;2.20;99.90;;;;;;4996919;28;20202;-71
2022/03/02 20:55:51;;;;;;;4.28;3.97;;;2.20;99.90;;;;;;4997067;28;20227;-71
2022/03/02 20:58:19;;;;;;;5.05;4.32;;;2.10;99.90;;;;;;4996571;28;20234;-70
2022/03/02 21:00:48;;;;;;;4.53;4.03;;;2.10;99.90;;;;;;4996716;28;20310;-70
2022/03/02 21:03:16;;;;;;;5.93;3.72;;;2.00;99.90;;;;;;4996779;28;20229;-70
2022/03/02 21:05:45;;;;;;;4.88;4.15;;;1.90;99.90;;;;;;4996954;28;20262;-70
2022/03/02 21:08:13;;;;;;;5.22;4.75;;;1.90;99.90;;;;;;4996870;28;20293;-71
2022/03/02 21:10:40;;;;;;;4.97;4.45;;;1.80;99.90;;;;;;4996256;28;20256;-71
2022/03/02 21:13:07;;;;;;;4.53;4.13;;;1.70;99.90;;;;;;4996257;28;20203;-71
2022/03/02 21:15:34;;;;;;;5.72;4.30;;;1.70;99.90;;;;;;4996531;28;20209;-71
2022/03/02 21:18:02;;;;;;;5.53;4.43;;;1.60;99.90;;;;;;4996513;28;20241;-72
2022/03/02 21:20:30;;;;;;;4.50;4.10;;;1.60;99.90;;;;;;4996462;28;20311;-72
2022/03/02 21:22:57;;;;;;;5.43;4.50;;;1.50;99.90;;;;;;4996458;28;20223;-71
2022/03/02 21:25:25;;;;;;;4.85;4.28;;;1.40;99.90;;;;;;4996475;28;20289;-71
2022/03/02 21:27:52;;;;;;;4.90;3.88;;;1.40;99.90;;;;;;4996374;28;20234;-71
2022/03/02 21:30:19;;;;;;;5.78;3.85;;;1.40;99.90;;;;;;4996295;28;20265;-71
2022/03/02 21:32:46;;;;;;;5.18;4.65;;;1.30;99.90;;;;;;4994823;28;20253;-71
2022/03/02 21:35:13;;;;;;;3.92;3.60;;;1.30;99.90;;;;;;4996022;28;20297;-71
2022/03/02 21:37:42;;;;;;;4.32;3.92;;;1.20;99.90;;;;;;4996137;28;20294;-71
2022/03/02 21:40:12;;;;;;;4.07;3.72;;;1.20;99.90;;;;;;4996187;28;20227;-71
2022/03/02 21:42:41;;;;;;;4.57;4.18;;;1.10;99.90;;;;;;4995855;28;20666;-72
2022/03/02 21:45:09;;;;;;;4.22;3.90;;;1.10;99.90;;;;;;4995704;28;20293;-72
2022/03/02 21:47:37;;;;;;;4.38;3.97;;;1.10;99.90;;;;;;4995986;28;20254;-72
2022/03/02 21:50:04;;;;;;;4.10;3.80;;;1.10;99.90;;;;;;4995922;28;20254;-72
2022/03/02 21:52:32;;;;;;;4.40;4.05;;;1.00;99.90;;;;;;4995632;28;20747;-72
2022/03/02 21:54:59;;;;;;;4.22;3.85;;;1.00;99.90;;;;;;4996060;28;20264;-72
2022/03/02 21:57:26;;;;;;;4.30;3.90;;;0.90;99.90;;;;;;4995871;28;20290;-72
2022/03/02 21:59:54;;;;;;;3.95;3.65;;;0.90;99.90;;;;;;4995803;28;20318;-72
2022/03/02 22:02:21;;;;;;;4.00;3.72;;;0.80;99.90;;;;;;4995452;28;20404;-72
2022/03/02 22:04:48;;;;;;;4.88;4.38;;;0.80;99.90;;;;;;4996011;28;20289;-72
2022/03/02 22:07:15;;;;;;;4.68;4.28;;;0.80;99.90;;;;;;4995567;28;20293;-72
2022/03/02 22:09:42;;;;;;;8.13;4.10;;;0.70;99.90;;;;;;4995069;28;20223;-71
2022/03/02 22:12:18;;;;;;;3.90;3.60;;;0.70;99.90;;;;;;4995708;28;20203;-71
2022/03/02 22:14:46;;;;;;;4.53;3.97;;;0.70;99.90;;;;;;4995504;28;20190;-71
2022/03/02 22:17:15;;;;;;;3.75;3.45;;;0.60;99.90;;;;;;4995517;28;20202;-72
2022/03/02 22:19:42;;;;;;;3.47;3.17;;;0.60;99.90;;;;;;4995321;28;20230;-71
2022/03/02 22:22:09;;;;;;;4.68;3.90;;;0.60;99.90;;;;;;4995139;28;20233;-71
2022/03/02 22:24:36;;;;;;;3.83;3.55;;;0.50;99.90;;;;;;4994886;28;20655;-71
2022/03/02 22:27:02;;;;;;;4.50;4.03;;;0.50;99.90;;;;;;4994839;28;20203;-72
2022/03/02 22:29:29;;;;;;;4.65;4.18;;;0.40;99.90;;;;;;4994543;28;20565;-71
2022/03/02 22:31:56;;;;;;;4.70;4.07;;;0.40;99.90;;;;;;4994663;28;20370;-72
2022/03/02 22:34:25;;;;;;;4.43;3.95;;;0.40;99.90;;;;;;4994817;28;20298;-71
2022/03/02 22:36:52;;;;;;;4.57;3.40;;;0.40;99.90;;;;;;4994699;28;20701;-71
2022/03/02 22:39:19;;;;;;;4.03;3.75;;;0.40;99.90;;;;;;4994842;28;20199;-70
